createdAt,value
2022-11-26T00:03:32.904Z,0.25
2022-11-26T00:08:36.519Z,1.00
2022-11-26T00:13:40.688Z,0.00
2022-11-26T00:18:43.612Z,1.75
2022-11-26T00:23:46.723Z,0.50
2022-11-26T00:28:53.679Z,0.50
2022-11-26T00:33:56.491Z,1.00
2022-11-26T00:39:03.200Z,0.00
2022-11-26T00:44:18.516Z,1.00
2022-11-26T00:49:21.820Z,0.00
2022-11-26T00:54:24.928Z,0.00
2022-11-26T00:59:29.010Z,1.00
2022-11-26T01:04:31.827Z,1.00
2022-11-26T01:09:34.616Z,0.75
2022-11-26T01:14:39.148Z,1.00
2022-11-26T01:19:42.103Z,1.00
2022-11-26T01:24:44.838Z,1.00
2022-11-26T01:29:49.000Z,1.00
2022-11-26T01:34:52.048Z,0.50
2022-11-26T01:39:54.781Z,0.75
2022-11-26T01:44:58.973Z,1.00
2022-11-26T01:50:39.187Z,1.00
2022-11-26T01:55:46.495Z,1.00
2022-11-26T02:00:52.188Z,1.00
2022-11-26T02:06:02.598Z,1.00
2022-11-26T02:11:16.778Z,0.75
2022-11-26T02:16:31.578Z,1.00
2022-11-26T02:21:37.166Z,1.00
2022-11-26T02:27:03.601Z,1.00
2022-11-26T02:32:12.191Z,1.75
2022-11-26T02:37:21.276Z,0.00
2022-11-26T02:42:27.485Z,1.00
2022-11-26T02:47:34.773Z,1.00
2022-11-26T02:52:41.448Z,1.00
2022-11-26T02:57:48.405Z,0.50
2022-11-26T03:03:01.565Z,0.00
2022-11-26T03:08:06.753Z,0.00
2022-11-26T03:13:09.601Z,1.00
2022-11-26T03:18:13.819Z,0.00
2022-11-26T03:23:16.603Z,0.00
2022-11-26T03:28:19.400Z,0.00
2022-11-26T03:33:23.671Z,0.00
2022-11-26T03:38:26.700Z,0.75
2022-11-26T03:43:30.173Z,1.00
2022-11-26T03:48:34.373Z,0.75
2022-11-26T03:53:37.185Z,1.00
2022-11-26T03:58:39.991Z,1.25
2022-11-26T04:03:44.119Z,0.50
2022-11-26T04:08:46.944Z,1.00
2022-11-26T04:13:49.757Z,1.00
2022-11-26T04:18:54.058Z,1.00
2022-11-26T04:23:56.934Z,1.00
2022-11-26T04:28:59.776Z,0.00
2022-11-26T04:34:03.934Z,1.00
2022-11-26T04:39:06.961Z,0.75
2022-11-26T04:44:09.820Z,1.00
2022-11-26T04:49:14.000Z,1.00
2022-11-26T04:54:16.801Z,1.00
2022-11-26T04:59:19.526Z,0.00
2022-11-26T05:04:23.821Z,0.00
2022-11-26T05:09:26.601Z,0.00
2022-11-26T05:14:29.522Z,1.50
2022-11-26T05:19:34.156Z,0.00
2022-11-26T05:24:38.081Z,0.00
2022-11-26T05:29:41.309Z,0.25
2022-11-26T05:34:45.614Z,0.00
2022-11-26T05:39:48.409Z,0.00
2022-11-26T05:44:51.295Z,0.75
2022-11-26T05:49:55.607Z,0.50
2022-11-26T05:54:58.448Z,0.25
2022-11-26T06:00:01.275Z,1.00
2022-11-26T06:05:16.243Z,0.25
2022-11-26T06:10:19.821Z,0.25
2022-11-26T06:15:22.578Z,0.75
2022-11-26T06:20:26.943Z,0.00
2022-11-26T06:25:29.734Z,0.00
2022-11-26T06:30:32.547Z,0.75
2022-11-26T06:35:36.885Z,0.25
2022-11-26T06:40:39.809Z,0.75
2022-11-26T06:45:42.609Z,1.00
2022-11-26T06:50:46.726Z,0.75
2022-11-26T06:55:49.496Z,0.75
2022-11-26T07:00:52.323Z,0.25
2022-11-26T07:05:56.549Z,0.25
2022-11-26T07:11:03.324Z,1.00
2022-11-26T07:16:07.300Z,0.00
2022-11-26T07:21:14.160Z,1.00
2022-11-26T07:26:19.333Z,0.00
2022-11-26T07:31:23.880Z,0.75
2022-11-26T07:36:30.463Z,0.25
2022-11-26T07:41:33.407Z,0.00
2022-11-26T07:46:39.282Z,0.75
2022-11-26T07:51:43.823Z,0.00
2022-11-26T07:56:46.599Z,1.00
2022-11-26T08:01:49.466Z,0.25
2022-11-26T08:06:53.585Z,0.00
2022-11-26T08:11:56.387Z,1.00
2022-11-26T08:16:59.176Z,1.25
2022-11-26T08:22:03.452Z,2.50
2022-11-26T08:27:06.387Z,3.00
2022-11-26T08:32:09.180Z,3.00
2022-11-26T08:37:13.462Z,3.25
2022-11-26T08:42:16.336Z,9.75
2022-11-26T08:47:19.123Z,13.50
2022-11-26T08:52:23.528Z,8.75
2022-11-26T08:57:29.483Z,7.00
2022-11-26T09:02:34.145Z,5.75
2022-11-26T09:07:38.369Z,6.25
2022-11-26T09:12:41.309Z,5.00
2022-11-26T09:17:44.076Z,4.50
2022-11-26T09:22:48.595Z,5.50
2022-11-26T09:27:51.395Z,5.25
2022-11-26T09:32:54.213Z,5.00
2022-11-26T09:37:58.562Z,4.00
2022-11-26T09:43:08.080Z,5.25
2022-11-26T09:48:17.230Z,5.00
2022-11-26T09:53:25.671Z,4.00
2022-11-26T09:58:35.195Z,4.75
2022-11-26T10:03:39.042Z,4.00
2022-11-26T10:09:09.378Z,4.33
2022-11-26T10:14:28.560Z,3.00
2022-11-26T10:19:42.530Z,3.25
2022-11-26T10:24:49.152Z,3.75
2022-11-26T10:29:55.388Z,3.00
2022-11-26T10:34:59.537Z,3.00
2022-11-26T10:40:20.426Z,3.00
2022-11-26T10:45:25.595Z,4.00
2022-11-26T10:55:54.882Z,2.00
2022-11-26T11:01:02.364Z,4.00
2022-11-26T11:06:14.246Z,3.50
2022-11-26T11:11:22.797Z,3.00
2022-11-26T11:16:28.445Z,3.50
2022-11-26T11:21:35.433Z,3.50
2022-11-26T11:26:44.562Z,3.00
2022-11-26T11:31:47.652Z,3.25
2022-11-26T11:37:01.272Z,3.75
2022-11-26T11:42:09.169Z,3.50
2022-11-26T11:47:23.715Z,3.00
2022-11-26T11:52:36.501Z,3.00
2022-11-26T11:57:59.207Z,3.00
2022-11-26T12:03:31.485Z,3.00
2022-11-26T12:08:45.345Z,3.00
2022-11-26T12:13:53.732Z,4.00
2022-11-26T12:19:02.110Z,3.75
2022-11-26T12:24:12.718Z,3.25
2022-11-26T12:29:22.389Z,3.25
2022-11-26T12:34:33.311Z,4.25
2022-11-26T12:39:45.321Z,4.00
2022-11-26T12:44:54.464Z,4.00
2022-11-26T12:50:08.132Z,4.00
2022-11-26T12:55:18.499Z,4.00
2022-11-26T13:00:30.116Z,4.00
2022-11-26T13:05:51.562Z,4.25
2022-11-26T13:11:17.902Z,3.00
2022-11-26T13:16:27.561Z,3.00
2022-11-26T13:21:44.169Z,4.75
2022-11-26T13:27:02.559Z,3.00
2022-11-26T13:32:26.032Z,2.75
2022-11-26T13:37:52.317Z,2.50
2022-11-26T13:43:30.233Z,3.00
2022-11-26T13:48:43.220Z,2.50
2022-11-26T13:53:51.271Z,2.50
2022-11-26T13:58:59.325Z,3.00
2022-11-26T14:04:05.456Z,4.00
2022-11-26T14:09:46.719Z,3.00
2022-11-26T14:14:50.557Z,3.00
2022-11-26T14:20:05.643Z,3.00
2022-11-26T14:25:12.040Z,3.00
2022-11-26T14:30:22.493Z,2.00
2022-11-26T14:35:33.875Z,2.00
2022-11-26T14:40:39.532Z,3.00
2022-11-26T14:45:43.148Z,4.00
2022-11-26T14:50:47.428Z,3.00
2022-11-26T14:55:51.943Z,3.00
2022-11-26T15:01:08.019Z,3.00
2022-11-26T15:06:26.613Z,3.25
2022-11-26T15:11:29.672Z,3.00
2022-11-26T15:16:35.025Z,3.50
2022-11-26T15:21:42.163Z,3.75
2022-11-26T15:26:47.953Z,3.00
2022-11-26T15:31:50.787Z,4.00
2022-11-26T15:36:55.241Z,2.00
2022-11-26T15:42:04.006Z,3.50
2022-11-26T15:47:06.855Z,3.25
2022-11-26T15:52:14.543Z,3.00
2022-11-26T15:57:25.141Z,2.25
2022-11-26T16:02:31.201Z,3.00
2022-11-26T16:07:35.696Z,3.50
2022-11-26T16:12:44.046Z,3.25
2022-11-26T16:17:48.609Z,2.25
2022-11-26T16:22:56.886Z,3.75
2022-11-26T16:28:05.260Z,2.75
2022-11-26T16:33:08.374Z,3.00
2022-11-26T16:38:20.140Z,3.00
2022-11-26T16:43:23.804Z,3.00
2022-11-26T16:48:28.642Z,4.00
2022-11-26T16:53:33.449Z,3.00
2022-11-26T16:58:38.779Z,3.00
2022-11-26T17:03:42.746Z,3.00
2022-11-26T17:08:49.797Z,3.75
2022-11-26T17:13:53.111Z,2.50
2022-11-26T17:18:55.947Z,3.00
2022-11-26T17:24:00.112Z,3.75
2022-11-26T17:29:03.079Z,3.00
2022-11-26T17:34:05.848Z,3.00
2022-11-26T17:39:12.297Z,3.00
2022-11-26T17:44:15.150Z,3.00
2022-11-26T17:49:18.114Z,3.00
2022-11-26T17:54:22.231Z,4.00
2022-11-26T17:59:25.099Z,3.25
2022-11-26T18:04:27.923Z,3.25
2022-11-26T18:09:32.915Z,3.00
2022-11-26T18:14:36.088Z,3.00
2022-11-26T18:19:43.599Z,3.50
2022-11-26T18:24:56.350Z,4.00
2022-11-26T18:30:00.314Z,3.25
2022-11-26T18:35:03.436Z,3.00
2022-11-26T18:40:11.138Z,3.50
2022-11-26T18:45:16.513Z,3.00
2022-11-26T18:50:19.718Z,4.25
2022-11-26T18:55:23.908Z,4.25
2022-11-26T19:00:26.835Z,4.00
2022-11-26T19:05:29.590Z,3.00
2022-11-26T19:10:34.136Z,4.00
2022-11-26T19:15:41.421Z,4.00
2022-11-26T19:20:52.879Z,3.50
2022-11-26T19:25:57.489Z,4.00
2022-11-26T19:31:01.939Z,4.50
2022-11-26T19:36:06.449Z,4.00
2022-11-26T19:41:11.231Z,3.00
2022-11-26T19:46:17.556Z,3.00
2022-11-26T19:51:22.557Z,4.00
2022-11-26T19:56:28.637Z,4.00
2022-11-26T20:01:34.437Z,3.25
2022-11-26T20:06:38.043Z,3.00
2022-11-26T20:11:42.454Z,4.00
2022-11-26T20:16:46.147Z,3.00
2022-11-26T20:21:50.867Z,3.50
2022-11-26T20:26:55.174Z,4.00
2022-11-26T20:31:58.002Z,4.00
2022-11-26T20:37:01.829Z,3.00
2022-11-26T20:42:06.150Z,3.25
2022-11-26T20:47:09.056Z,4.50
2022-11-26T20:52:11.909Z,4.00
2022-11-26T20:57:18.071Z,4.00
2022-11-26T21:02:20.855Z,2.50
2022-11-26T21:07:23.952Z,5.00
2022-11-26T21:12:28.950Z,3.00
2022-11-26T21:17:31.708Z,4.00
2022-11-26T21:22:34.628Z,3.00
2022-11-26T21:27:38.803Z,3.00
2022-11-26T21:32:41.599Z,3.75
2022-11-26T21:37:44.460Z,3.00
2022-11-26T21:42:48.778Z,3.50
2022-11-26T21:47:52.033Z,3.75
2022-11-26T21:52:54.821Z,3.00
2022-11-26T21:57:59.195Z,4.00
2022-11-26T22:03:04.938Z,3.50
2022-11-26T22:08:09.995Z,4.00
2022-11-26T22:13:14.429Z,2.75
2022-11-26T22:18:17.259Z,2.00
2022-11-26T22:23:22.721Z,4.00
2022-11-26T22:28:30.170Z,3.25
2022-11-26T22:33:33.206Z,3.75
2022-11-26T22:38:36.932Z,4.00
2022-11-26T22:43:42.042Z,3.75
2022-11-26T22:48:49.069Z,3.25
2022-11-26T22:53:52.245Z,3.00
2022-11-26T22:58:56.853Z,2.50
2022-11-26T23:04:01.196Z,3.00
2022-11-26T23:09:05.933Z,3.00
2022-11-26T23:14:11.974Z,2.75
2022-11-26T23:19:16.332Z,3.00
2022-11-26T23:24:19.131Z,4.00
2022-11-26T23:29:23.516Z,3.00
2022-11-26T23:34:26.274Z,3.00
2022-11-26T23:39:29.165Z,3.00
2022-11-26T23:44:33.504Z,3.00
2022-11-26T23:49:36.403Z,3.00
2022-11-26T23:54:39.160Z,3.00
2022-11-26T23:59:43.349Z,3.00
